sensor_id;sensor_type;location;lat;lon;timestamp;temperature;humidity
418;DHT22;49;48.530;9.200;2022-12-18T00:00:49;2.80;42.80
418;DHT22;49;48.530;9.200;2022-12-18T00:03:19;2.20;33.90
418;DHT22;49;48.530;9.200;2022-12-18T00:05:50;2.50;31.50
418;DHT22;49;48.530;9.200;2022-12-18T00:08:21;2.50;37.60
418;DHT22;49;48.530;9.200;2022-12-18T00:10:53;0.60;30.90
418;DHT22;49;48.530;9.200;2022-12-18T00:13:25;-0.80;33.10
418;DHT22;49;48.530;9.200;2022-12-18T00:16:02;-1.10;31.90
418;DHT22;49;48.530;9.200;2022-12-18T00:18:29;-1.80;34.90
418;DHT22;49;48.530;9.200;2022-12-18T00:21:00;-1.40;43.00
418;DHT22;49;48.530;9.200;2022-12-18T00:23:27;-1.90;38.30
418;DHT22;49;48.530;9.200;2022-12-18T00:25:54;-2.80;32.00
418;DHT22;49;48.530;9.200;2022-12-18T00:28:23;-3.10;42.10
418;DHT22;49;48.530;9.200;2022-12-18T00:31:01;-2.90;39.70
418;DHT22;49;48.530;9.200;2022-12-18T00:33:32;-2.60;44.30
418;DHT22;49;48.530;9.200;2022-12-18T00:36:01;-1.70;70.40
418;DHT22;49;48.530;9.200;2022-12-18T00:38:31;-1.80;31.20
418;DHT22;49;48.530;9.200;2022-12-18T00:40:58;-2.20;31.50
418;DHT22;49;48.530;9.200;2022-12-18T00:43:26;-1.50;54.30
418;DHT22;49;48.530;9.200;2022-12-18T00:45:54;-0.60;55.10
418;DHT22;49;48.530;9.200;2022-12-18T00:48:26;-0.80;33.10
418;DHT22;49;48.530;9.200;2022-12-18T00:50:54;-0.90;31.60
418;DHT22;49;48.530;9.200;2022-12-18T00:53:21;-1.20;41.10
418;DHT22;49;48.530;9.200;2022-12-18T00:55:53;-1.30;61.60
418;DHT22;49;48.530;9.200;2022-12-18T00:58:20;-0.90;29.40
418;DHT22;49;48.530;9.200;2022-12-18T01:00:47;-1.50;32.20
418;DHT22;49;48.530;9.200;2022-12-18T01:03:15;-1.20;42.50
418;DHT22;49;48.530;9.200;2022-12-18T01:05:43;-1.60;27.80
418;DHT22;49;48.530;9.200;2022-12-18T01:08:10;-2.10;40.30
418;DHT22;49;48.530;9.200;2022-12-18T01:10:40;-1.90;26.90
418;DHT22;49;48.530;9.200;2022-12-18T01:13:07;-2.70;28.60
418;DHT22;49;48.530;9.200;2022-12-18T01:15:34;-2.80;30.50
418;DHT22;49;48.530;9.200;2022-12-18T01:18:02;-3.00;32.20
418;DHT22;49;48.530;9.200;2022-12-18T01:20:30;-2.40;40.10
418;DHT22;49;48.530;9.200;2022-12-18T01:22:59;-2.50;44.20
418;DHT22;49;48.530;9.200;2022-12-18T01:25:26;-3.70;25.80
418;DHT22;49;48.530;9.200;2022-12-18T01:27:53;-4.40;29.60
418;DHT22;49;48.530;9.200;2022-12-18T01:30:23;-5.30;36.70
418;DHT22;49;48.530;9.200;2022-12-18T01:32:50;-5.50;35.40
418;DHT22;49;48.530;9.200;2022-12-18T01:35:17;-5.00;42.30
418;DHT22;49;48.530;9.200;2022-12-18T01:37:44;-4.60;39.80
418;DHT22;49;48.530;9.200;2022-12-18T01:40:13;-5.10;31.60
418;DHT22;49;48.530;9.200;2022-12-18T01:42:40;-5.80;35.80
418;DHT22;49;48.530;9.200;2022-12-18T01:45:23;-4.90;76.10
418;DHT22;49;48.530;9.200;2022-12-18T01:47:52;-5.00;53.00
418;DHT22;49;48.530;9.200;2022-12-18T01:50:22;-4.50;38.30
418;DHT22;49;48.530;9.200;2022-12-18T01:52:57;-4.10;37.50
418;DHT22;49;48.530;9.200;2022-12-18T01:55:35;-3.40;68.60
418;DHT22;49;48.530;9.200;2022-12-18T01:58:06;-2.10;59.60
418;DHT22;49;48.530;9.200;2022-12-18T02:00:34;-1.20;54.90
418;DHT22;49;48.530;9.200;2022-12-18T02:03:03;-0.60;60.80
418;DHT22;49;48.530;9.200;2022-12-18T02:05:43;0.20;31.60
418;DHT22;49;48.530;9.200;2022-12-18T02:08:17;-0.60;26.90
418;DHT22;49;48.530;9.200;2022-12-18T02:10:56;-2.20;25.50
418;DHT22;49;48.530;9.200;2022-12-18T02:13:32;-2.70;26.20
418;DHT22;49;48.530;9.200;2022-12-18T02:16:10;-2.80;50.20
418;DHT22;49;48.530;9.200;2022-12-18T02:18:50;-2.40;30.90
418;DHT22;49;48.530;9.200;2022-12-18T02:21:27;-1.40;54.50
418;DHT22;49;48.530;9.200;2022-12-18T02:24:11;-0.10;60.80
418;DHT22;49;48.530;9.200;2022-12-18T02:26:50;0.00;30.80
418;DHT22;49;48.530;9.200;2022-12-18T02:29:31;0.70;40.10
418;DHT22;49;48.530;9.200;2022-12-18T02:32:08;1.50;36.80
418;DHT22;49;48.530;9.200;2022-12-18T02:34:39;1.20;39.80
418;DHT22;49;48.530;9.200;2022-12-18T02:37:16;1.10;46.50
418;DHT22;49;48.530;9.200;2022-12-18T02:39:48;0.50;53.90
418;DHT22;49;48.530;9.200;2022-12-18T02:42:24;-0.50;39.30
418;DHT22;49;48.530;9.200;2022-12-18T02:45:08;0.00;23.80
418;DHT22;49;48.530;9.200;2022-12-18T02:47:55;0.20;68.30
418;DHT22;49;48.530;9.200;2022-12-18T02:50:35;-0.70;28.10
418;DHT22;49;48.530;9.200;2022-12-18T02:53:13;-0.20;25.60
418;DHT22;49;48.530;9.200;2022-12-18T02:55:55;0.00;32.00
418;DHT22;49;48.530;9.200;2022-12-18T02:58:36;-1.10;27.80
418;DHT22;49;48.530;9.200;2022-12-18T03:01:15;-1.70;42.90
418;DHT22;49;48.530;9.200;2022-12-18T03:03:53;-1.60;48.10
418;DHT22;49;48.530;9.200;2022-12-18T03:06:32;-1.50;27.00
418;DHT22;49;48.530;9.200;2022-12-18T03:09:09;-1.80;33.20
418;DHT22;49;48.530;9.200;2022-12-18T03:11:41;-1.70;27.90
418;DHT22;49;48.530;9.200;2022-12-18T03:14:35;-2.90;27.90
418;DHT22;49;48.530;9.200;2022-12-18T03:17:09;-3.00;43.10
418;DHT22;49;48.530;9.200;2022-12-18T03:19:37;-4.00;36.10
418;DHT22;49;48.530;9.200;2022-12-18T03:22:09;-2.80;38.40
418;DHT22;49;48.530;9.200;2022-12-18T03:24:42;-1.90;60.30
418;DHT22;49;48.530;9.200;2022-12-18T03:27:12;-1.60;40.80
418;DHT22;49;48.530;9.200;2022-12-18T03:29:51;-0.80;34.30
418;DHT22;49;48.530;9.200;2022-12-18T03:32:44;-0.60;39.50
418;DHT22;49;48.530;9.200;2022-12-18T03:35:18;-1.20;27.30
418;DHT22;49;48.530;9.200;2022-12-18T03:37:54;-0.90;50.50
418;DHT22;49;48.530;9.200;2022-12-18T03:40:29;-0.90;38.40
418;DHT22;49;48.530;9.200;2022-12-18T03:43:10;-0.50;44.90
418;DHT22;49;48.530;9.200;2022-12-18T03:45:45;-0.70;28.50
418;DHT22;49;48.530;9.200;2022-12-18T03:48:29;-1.40;28.10
418;DHT22;49;48.530;9.200;2022-12-18T03:51:04;-1.00;34.80
418;DHT22;49;48.530;9.200;2022-12-18T03:53:36;-1.20;51.70
418;DHT22;49;48.530;9.200;2022-12-18T03:56:09;-1.00;36.60
418;DHT22;49;48.530;9.200;2022-12-18T03:58:37;-2.60;29.10
418;DHT22;49;48.530;9.200;2022-12-18T04:01:13;-2.90;45.30
418;DHT22;49;48.530;9.200;2022-12-18T04:03:44;-2.80;35.10
418;DHT22;49;48.530;9.200;2022-12-18T04:06:17;-1.90;45.30
418;DHT22;49;48.530;9.200;2022-12-18T04:08:55;-2.50;34.70
418;DHT22;49;48.530;9.200;2022-12-18T04:11:23;-3.30;34.10
418;DHT22;49;48.530;9.200;2022-12-18T04:13:53;-3.70;38.30
418;DHT22;49;48.530;9.200;2022-12-18T04:16:28;-3.80;46.30
418;DHT22;49;48.530;9.200;2022-12-18T04:18:56;-2.00;81.50
418;DHT22;49;48.530;9.200;2022-12-18T04:21:28;-0.50;62.60
418;DHT22;49;48.530;9.200;2022-12-18T04:23:56;-0.70;67.00
418;DHT22;49;48.530;9.200;2022-12-18T04:26:23;0.20;62.20
418;DHT22;49;48.530;9.200;2022-12-18T04:28:52;0.70;39.70
418;DHT22;49;48.530;9.200;2022-12-18T04:31:33;-0.10;29.70
418;DHT22;49;48.530;9.200;2022-12-18T04:34:14;0.60;73.30
418;DHT22;49;48.530;9.200;2022-12-18T04:36:44;0.20;42.20
418;DHT22;49;48.530;9.200;2022-12-18T04:39:19;0.30;31.60
418;DHT22;49;48.530;9.200;2022-12-18T04:41:48;-0.90;26.90
418;DHT22;49;48.530;9.200;2022-12-18T04:44:15;-1.00;57.60
418;DHT22;49;48.530;9.200;2022-12-18T04:46:49;-1.50;30.10
418;DHT22;49;48.530;9.200;2022-12-18T04:49:23;-1.20;54.00
418;DHT22;49;48.530;9.200;2022-12-18T04:51:55;0.00;74.00
418;DHT22;49;48.530;9.200;2022-12-18T04:54:25;0.30;42.60
418;DHT22;49;48.530;9.200;2022-12-18T04:56:52;-0.70;27.80
418;DHT22;49;48.530;9.200;2022-12-18T04:59:20;-1.40;39.10
418;DHT22;49;48.530;9.200;2022-12-18T05:01:49;-2.30;31.50
418;DHT22;49;48.530;9.200;2022-12-18T05:04:17;-3.70;39.00
418;DHT22;49;48.530;9.200;2022-12-18T05:06:44;-4.40;77.50
418;DHT22;49;48.530;9.200;2022-12-18T05:09:13;-4.00;55.10
418;DHT22;49;48.530;9.200;2022-12-18T05:11:43;-3.00;65.60
418;DHT22;49;48.530;9.200;2022-12-18T05:14:16;-1.10;83.50
418;DHT22;49;48.530;9.200;2022-12-18T05:17:00;-0.70;33.10
418;DHT22;49;48.530;9.200;2022-12-18T05:19:34;-0.70;59.00
418;DHT22;49;48.530;9.200;2022-12-18T05:22:04;0.10;56.20
418;DHT22;49;48.530;9.200;2022-12-18T05:24:42;0.50;67.80
418;DHT22;49;48.530;9.200;2022-12-18T05:27:18;1.60;52.80
418;DHT22;49;48.530;9.200;2022-12-18T05:29:55;1.20;41.60
418;DHT22;49;48.530;9.200;2022-12-18T05:32:33;1.90;69.20
418;DHT22;49;48.530;9.200;2022-12-18T05:35:05;2.20;37.90
418;DHT22;49;48.530;9.200;2022-12-18T05:37:33;1.60;40.40
418;DHT22;49;48.530;9.200;2022-12-18T05:40:13;2.30;59.70
418;DHT22;49;48.530;9.200;2022-12-18T05:42:40;1.40;37.00
418;DHT22;49;48.530;9.200;2022-12-18T05:45:11;1.00;22.70
418;DHT22;49;48.530;9.200;2022-12-18T05:47:44;0.30;59.50
418;DHT22;49;48.530;9.200;2022-12-18T05:50:14;1.70;46.20
418;DHT22;49;48.530;9.200;2022-12-18T05:52:51;0.80;24.90
418;DHT22;49;48.530;9.200;2022-12-18T05:55:19;0.70;61.30
418;DHT22;49;48.530;9.200;2022-12-18T05:57:48;1.80;45.80
418;DHT22;49;48.530;9.200;2022-12-18T06:00:18;0.40;23.90
418;DHT22;49;48.530;9.200;2022-12-18T06:02:49;0.80;52.50
418;DHT22;49;48.530;9.200;2022-12-18T06:05:18;0.60;19.40
418;DHT22;49;48.530;9.200;2022-12-18T06:07:45;-0.60;24.40
418;DHT22;49;48.530;9.200;2022-12-18T06:10:15;0.00;44.50
418;DHT22;49;48.530;9.200;2022-12-18T06:12:48;0.80;67.90
418;DHT22;49;48.530;9.200;2022-12-18T06:15:19;1.60;45.60
418;DHT22;49;48.530;9.200;2022-12-18T06:18:00;1.80;48.00
418;DHT22;49;48.530;9.200;2022-12-18T06:20:31;1.40;28.70
418;DHT22;49;48.530;9.200;2022-12-18T06:23:07;1.90;53.80
418;DHT22;49;48.530;9.200;2022-12-18T06:25:43;2.10;47.80
418;DHT22;49;48.530;9.200;2022-12-18T06:28:15;2.20;29.40
418;DHT22;49;48.530;9.200;2022-12-18T06:30:53;2.60;53.20
418;DHT22;49;48.530;9.200;2022-12-18T06:33:31;3.50;49.60
418;DHT22;49;48.530;9.200;2022-12-18T06:36:08;3.60;52.70
418;DHT22;49;48.530;9.200;2022-12-18T06:38:41;2.30;40.00
418;DHT22;49;48.530;9.200;2022-12-18T06:41:15;1.40;28.40
418;DHT22;49;48.530;9.200;2022-12-18T06:43:45;0.80;25.70
418;DHT22;49;48.530;9.200;2022-12-18T06:46:14;0.10;25.30
418;DHT22;49;48.530;9.200;2022-12-18T06:48:46;-0.70;18.90
418;DHT22;49;48.530;9.200;2022-12-18T06:51:17;-1.30;24.70
418;DHT22;49;48.530;9.200;2022-12-18T06:53:44;-2.40;34.20
418;DHT22;49;48.530;9.200;2022-12-18T06:56:12;-2.10;37.10
418;DHT22;49;48.530;9.200;2022-12-18T06:58:41;-2.40;23.00
418;DHT22;49;48.530;9.200;2022-12-18T07:01:13;-3.30;46.00
418;DHT22;49;48.530;9.200;2022-12-18T07:03:41;-3.70;24.90
418;DHT22;49;48.530;9.200;2022-12-18T07:06:14;-3.20;35.60
418;DHT22;49;48.530;9.200;2022-12-18T07:08:42;-2.20;49.70
418;DHT22;49;48.530;9.200;2022-12-18T07:11:11;-2.70;26.80
418;DHT22;49;48.530;9.200;2022-12-18T07:13:43;-3.10;39.50
418;DHT22;49;48.530;9.200;2022-12-18T07:16:12;-2.30;37.30
418;DHT22;49;48.530;9.200;2022-12-18T07:18:40;-3.20;27.40
418;DHT22;49;48.530;9.200;2022-12-18T07:21:10;-3.70;37.80
418;DHT22;49;48.530;9.200;2022-12-18T07:23:42;-3.50;44.40
418;DHT22;49;48.530;9.200;2022-12-18T07:26:11;-3.50;28.60
418;DHT22;49;48.530;9.200;2022-12-18T07:28:40;-3.00;63.00
418;DHT22;49;48.530;9.200;2022-12-18T07:31:12;-2.30;35.20
418;DHT22;49;48.530;9.200;2022-12-18T07:33:40;-1.40;44.50
418;DHT22;49;48.530;9.200;2022-12-18T07:36:08;-1.90;47.00
418;DHT22;49;48.530;9.200;2022-12-18T07:38:37;-1.50;58.40
418;DHT22;49;48.530;9.200;2022-12-18T07:41:07;-0.60;35.50
418;DHT22;49;48.530;9.200;2022-12-18T07:43:35;-0.60;42.90
418;DHT22;49;48.530;9.200;2022-12-18T07:46:06;-0.90;54.90
418;DHT22;49;48.530;9.200;2022-12-18T07:48:34;-0.40;58.90
418;DHT22;49;48.530;9.200;2022-12-18T07:51:02;-0.50;41.60
418;DHT22;49;48.530;9.200;2022-12-18T07:53:35;-0.40;61.90
418;DHT22;49;48.530;9.200;2022-12-18T07:56:07;0.30;49.90
418;DHT22;49;48.530;9.200;2022-12-18T07:58:37;-0.90;31.60
418;DHT22;49;48.530;9.200;2022-12-18T08:01:11;-0.80;54.20
418;DHT22;49;48.530;9.200;2022-12-18T08:03:42;-0.20;44.00
418;DHT22;49;48.530;9.200;2022-12-18T08:06:12;0.60;29.80
418;DHT22;49;48.530;9.200;2022-12-18T08:08:39;1.00;64.60
418;DHT22;49;48.530;9.200;2022-12-18T08:11:24;0.20;24.70
418;DHT22;49;48.530;9.200;2022-12-18T08:13:54;-0.20;35.40
418;DHT22;49;48.530;9.200;2022-12-18T08:16:27;-0.80;50.00
418;DHT22;49;48.530;9.200;2022-12-18T08:18:54;-0.10;27.50
418;DHT22;49;48.530;9.200;2022-12-18T08:21:24;0.90;49.80
418;DHT22;49;48.530;9.200;2022-12-18T08:23:55;0.70;28.80
418;DHT22;49;48.530;9.200;2022-12-18T08:26:39;0.10;28.60
418;DHT22;49;48.530;9.200;2022-12-18T08:29:09;0.10;31.40
418;DHT22;49;48.530;9.200;2022-12-18T08:31:45;0.10;28.00
418;DHT22;49;48.530;9.200;2022-12-18T08:34:15;0.40;20.60
418;DHT22;49;48.530;9.200;2022-12-18T08:36:42;0.90;50.00
418;DHT22;49;48.530;9.200;2022-12-18T08:39:09;1.00;22.80
418;DHT22;49;48.530;9.200;2022-12-18T08:41:45;0.60;40.30
418;DHT22;49;48.530;9.200;2022-12-18T08:44:47;1.00;27.40
418;DHT22;49;48.530;9.200;2022-12-18T08:47:13;1.40;29.50
418;DHT22;49;48.530;9.200;2022-12-18T08:49:41;1.70;49.00
418;DHT22;49;48.530;9.200;2022-12-18T08:52:17;1.80;19.40
418;DHT22;49;48.530;9.200;2022-12-18T08:54:44;1.20;24.80
418;DHT22;49;48.530;9.200;2022-12-18T08:57:17;1.30;38.90
418;DHT22;49;48.530;9.200;2022-12-18T08:59:47;1.60;21.50
418;DHT22;49;48.530;9.200;2022-12-18T09:02:15;1.40;41.10
418;DHT22;49;48.530;9.200;2022-12-18T09:04:44;0.30;19.10
418;DHT22;49;48.530;9.200;2022-12-18T09:07:14;0.10;20.60
418;DHT22;49;48.530;9.200;2022-12-18T09:09:49;0.50;34.70
418;DHT22;49;48.530;9.200;2022-12-18T09:12:23;0.50;34.00
418;DHT22;49;48.530;9.200;2022-12-18T09:14:50;0.30;28.70
418;DHT22;49;48.530;9.200;2022-12-18T09:17:18;0.30;39.70
418;DHT22;49;48.530;9.200;2022-12-18T09:19:45;0.00;25.50
418;DHT22;49;48.530;9.200;2022-12-18T09:22:12;-0.30;31.50
418;DHT22;49;48.530;9.200;2022-12-18T09:24:41;-0.10;32.30
418;DHT22;49;48.530;9.200;2022-12-18T09:27:16;1.00;50.00
418;DHT22;49;48.530;9.200;2022-12-18T09:29:49;1.90;25.70
418;DHT22;49;48.530;9.200;2022-12-18T09:32:25;2.40;26.00
418;DHT22;49;48.530;9.200;2022-12-18T09:34:58;1.80;20.10
418;DHT22;49;48.530;9.200;2022-12-18T09:37:25;1.60;23.60
418;DHT22;49;48.530;9.200;2022-12-18T09:40:00;2.20;31.20
418;DHT22;49;48.530;9.200;2022-12-18T09:42:28;2.10;19.00
418;DHT22;49;48.530;9.200;2022-12-18T09:45:00;1.70;23.90
418;DHT22;49;48.530;9.200;2022-12-18T09:47:35;1.90;20.50
418;DHT22;49;48.530;9.200;2022-12-18T09:50:19;1.80;24.50
418;DHT22;49;48.530;9.200;2022-12-18T09:52:55;1.20;26.50
418;DHT22;49;48.530;9.200;2022-12-18T09:55:44;1.50;20.30
418;DHT22;49;48.530;9.200;2022-12-18T09:58:29;1.70;27.30
418;DHT22;49;48.530;9.200;2022-12-18T10:04:10;2.10;37.60
418;DHT22;49;48.530;9.200;2022-12-18T10:06:57;2.50;23.00
418;DHT22;49;48.530;9.200;2022-12-18T10:09:45;2.10;21.70
418;DHT22;49;48.530;9.200;2022-12-18T10:12:42;2.60;30.10
418;DHT22;49;48.530;9.200;2022-12-18T10:15:33;2.50;35.40
418;DHT22;49;48.530;9.200;2022-12-18T10:18:27;2.60;20.90
418;DHT22;49;48.530;9.200;2022-12-18T10:21:24;2.70;24.60
418;DHT22;49;48.530;9.200;2022-12-18T10:24:22;2.70;22.50
418;DHT22;49;48.530;9.200;2022-12-18T10:27:14;2.70;23.90
418;DHT22;49;48.530;9.200;2022-12-18T10:29:57;2.50;23.70
418;DHT22;49;48.530;9.200;2022-12-18T10:33:02;2.50;19.80
418;DHT22;49;48.530;9.200;2022-12-18T10:36:16;2.30;24.00
418;DHT22;49;48.530;9.200;2022-12-18T10:39:25;2.60;31.90
418;DHT22;49;48.530;9.200;2022-12-18T10:42:28;3.20;23.20
418;DHT22;49;48.530;9.200;2022-12-18T10:45:16;3.10;18.20
418;DHT22;49;48.530;9.200;2022-12-18T10:48:23;3.20;35.30
418;DHT22;49;48.530;9.200;2022-12-18T10:51:00;3.30;25.00
418;DHT22;49;48.530;9.200;2022-12-18T10:53:50;4.00;27.40
418;DHT22;49;48.530;9.200;2022-12-18T10:56:33;4.50;42.50
418;DHT22;49;48.530;9.200;2022-12-18T11:02:36;4.50;20.50
418;DHT22;49;48.530;9.200;2022-12-18T11:09:05;4.50;27.80
418;DHT22;49;48.530;9.200;2022-12-18T11:11:59;4.20;23.30
418;DHT22;49;48.530;9.200;2022-12-18T11:14:58;4.00;19.10
418;DHT22;49;48.530;9.200;2022-12-18T11:23:31;3.40;20.90
418;DHT22;49;48.530;9.200;2022-12-18T11:29:27;1.40;22.70
418;DHT22;49;48.530;9.200;2022-12-18T11:38:46;0.10;29.50
418;DHT22;49;48.530;9.200;2022-12-18T11:41:43;1.00;59.50
418;DHT22;49;48.530;9.200;2022-12-18T11:44:38;3.00;58.10
418;DHT22;49;48.530;9.200;2022-12-18T11:47:26;4.50;42.00
418;DHT22;49;48.530;9.200;2022-12-18T11:50:01;4.90;24.00
418;DHT22;49;48.530;9.200;2022-12-18T11:52:53;3.90;22.00
418;DHT22;49;48.530;9.200;2022-12-18T11:55:45;3.30;22.90
418;DHT22;49;48.530;9.200;2022-12-18T12:02:11;2.20;26.80
418;DHT22;49;48.530;9.200;2022-12-18T12:05:15;2.30;28.90
418;DHT22;49;48.530;9.200;2022-12-18T12:07:59;2.70;27.50
418;DHT22;49;48.530;9.200;2022-12-18T12:10:51;3.10;27.00
418;DHT22;49;48.530;9.200;2022-12-18T12:13:42;4.00;27.50
418;DHT22;49;48.530;9.200;2022-12-18T12:16:28;4.10;23.00
418;DHT22;49;48.530;9.200;2022-12-18T12:22:43;4.20;25.80
418;DHT22;49;48.530;9.200;2022-12-18T12:25:51;4.10;22.80
418;DHT22;49;48.530;9.200;2022-12-18T12:28:46;4.00;23.50
418;DHT22;49;48.530;9.200;2022-12-18T12:31:58;3.90;24.10
418;DHT22;49;48.530;9.200;2022-12-18T12:34:47;3.70;24.60
418;DHT22;49;48.530;9.200;2022-12-18T12:38:00;3.50;25.90
418;DHT22;49;48.530;9.200;2022-12-18T12:40:59;3.80;25.40
418;DHT22;49;48.530;9.200;2022-12-18T12:44:06;3.70;25.30
418;DHT22;49;48.530;9.200;2022-12-18T12:46:40;3.40;26.80
418;DHT22;49;48.530;9.200;2022-12-18T12:49:38;3.50;26.60
418;DHT22;49;48.530;9.200;2022-12-18T12:52:23;3.50;25.90
418;DHT22;49;48.530;9.200;2022-12-18T12:55:21;3.30;26.20
418;DHT22;49;48.530;9.200;2022-12-18T12:58:02;3.10;27.50
418;DHT22;49;48.530;9.200;2022-12-18T13:00:43;2.90;28.20
418;DHT22;49;48.530;9.200;2022-12-18T13:03:30;2.90;28.30
418;DHT22;49;48.530;9.200;2022-12-18T13:06:12;3.10;27.70
418;DHT22;49;48.530;9.200;2022-12-18T13:08:54;3.20;28.10
418;DHT22;49;48.530;9.200;2022-12-18T13:11:58;3.40;26.70
418;DHT22;49;48.530;9.200;2022-12-18T13:14:51;3.70;30.00
418;DHT22;49;48.530;9.200;2022-12-18T13:17:32;3.80;25.80
418;DHT22;49;48.530;9.200;2022-12-18T13:20:17;3.90;26.50
418;DHT22;49;48.530;9.200;2022-12-18T13:25:47;3.70;26.70
418;DHT22;49;48.530;9.200;2022-12-18T13:28:56;3.80;26.50
418;DHT22;49;48.530;9.200;2022-12-18T13:38:10;3.70;27.80
418;DHT22;49;48.530;9.200;2022-12-18T13:41:14;3.70;27.70
418;DHT22;49;48.530;9.200;2022-12-18T13:44:32;3.80;27.70
418;DHT22;49;48.530;9.200;2022-12-18T13:47:25;3.70;28.10
418;DHT22;49;48.530;9.200;2022-12-18T13:50:28;3.80;28.50
418;DHT22;49;48.530;9.200;2022-12-18T13:52:59;3.60;29.20
418;DHT22;49;48.530;9.200;2022-12-18T13:55:37;3.80;29.00
418;DHT22;49;48.530;9.200;2022-12-18T13:58:15;3.80;29.30
418;DHT22;49;48.530;9.200;2022-12-18T14:01:10;3.80;30.00
418;DHT22;49;48.530;9.200;2022-12-18T14:06:34;4.00;28.70
418;DHT22;49;48.530;9.200;2022-12-18T14:09:19;3.90;28.80
418;DHT22;49;48.530;9.200;2022-12-18T14:12:20;3.80;28.60
418;DHT22;49;48.530;9.200;2022-12-18T14:15:20;3.60;28.80
418;DHT22;49;48.530;9.200;2022-12-18T14:18:27;3.50;30.00
418;DHT22;49;48.530;9.200;2022-12-18T14:21:00;3.30;29.50
418;DHT22;49;48.530;9.200;2022-12-18T14:23:40;3.30;29.80
418;DHT22;49;48.530;9.200;2022-12-18T14:26:31;3.20;29.90
418;DHT22;49;48.530;9.200;2022-12-18T14:29:27;3.20;29.40
418;DHT22;49;48.530;9.200;2022-12-18T14:32:05;3.40;29.60
418;DHT22;49;48.530;9.200;2022-12-18T14:34:47;3.30;29.20
418;DHT22;49;48.530;9.200;2022-12-18T14:37:27;3.30;29.50
418;DHT22;49;48.530;9.200;2022-12-18T14:39:57;3.10;29.70
418;DHT22;49;48.530;9.200;2022-12-18T14:42:44;3.30;38.20
418;DHT22;49;48.530;9.200;2022-12-18T14:45:35;3.40;30.60
418;DHT22;49;48.530;9.200;2022-12-18T14:48:19;3.40;29.40
418;DHT22;49;48.530;9.200;2022-12-18T14:51:02;3.10;29.70
418;DHT22;49;48.530;9.200;2022-12-18T14:53:40;3.50;34.00
418;DHT22;49;48.530;9.200;2022-12-18T14:56:21;3.70;29.30
418;DHT22;49;48.530;9.200;2022-12-18T14:58:54;3.40;35.00
418;DHT22;49;48.530;9.200;2022-12-18T15:01:32;3.20;29.60
418;DHT22;49;48.530;9.200;2022-12-18T15:04:04;3.00;30.40
418;DHT22;49;48.530;9.200;2022-12-18T15:06:45;2.40;31.90
418;DHT22;49;48.530;9.200;2022-12-18T15:09:23;2.40;32.50
418;DHT22;49;48.530;9.200;2022-12-18T15:11:56;2.30;32.90
418;DHT22;49;48.530;9.200;2022-12-18T15:14:39;2.10;33.40
418;DHT22;49;48.530;9.200;2022-12-18T15:17:17;2.00;33.10
418;DHT22;49;48.530;9.200;2022-12-18T15:19:50;2.10;33.50
418;DHT22;49;48.530;9.200;2022-12-18T15:22:26;2.10;33.70
418;DHT22;49;48.530;9.200;2022-12-18T15:24:58;2.00;32.40
418;DHT22;49;48.530;9.200;2022-12-18T15:27:36;1.90;32.20
418;DHT22;49;48.530;9.200;2022-12-18T15:30:22;1.80;33.60
418;DHT22;49;48.530;9.200;2022-12-18T15:32:52;1.90;34.40
418;DHT22;49;48.530;9.200;2022-12-18T15:35:47;2.30;48.90
418;DHT22;49;48.530;9.200;2022-12-18T15:38:35;2.50;52.30
418;DHT22;49;48.530;9.200;2022-12-18T15:41:12;2.40;31.40
418;DHT22;49;48.530;9.200;2022-12-18T15:43:41;2.40;35.50
418;DHT22;49;48.530;9.200;2022-12-18T15:46:22;3.20;60.70
418;DHT22;49;48.530;9.200;2022-12-18T15:48:59;3.10;35.40
418;DHT22;49;48.530;9.200;2022-12-18T15:51:31;3.30;57.10
418;DHT22;49;48.530;9.200;2022-12-18T15:54:09;3.80;38.80
418;DHT22;49;48.530;9.200;2022-12-18T15:57:01;3.90;38.60
418;DHT22;49;48.530;9.200;2022-12-18T15:59:48;4.70;50.20
418;DHT22;49;48.530;9.200;2022-12-18T16:02:19;4.20;45.50
418;DHT22;49;48.530;9.200;2022-12-18T16:05:05;3.80;29.40
418;DHT22;49;48.530;9.200;2022-12-18T16:07:41;3.90;53.80
418;DHT22;49;48.530;9.200;2022-12-18T16:10:19;3.60;38.30
418;DHT22;49;48.530;9.200;2022-12-18T16:12:58;4.10;44.40
418;DHT22;49;48.530;9.200;2022-12-18T16:15:27;4.40;36.50
418;DHT22;49;48.530;9.200;2022-12-18T16:18:12;4.20;52.20
418;DHT22;49;48.530;9.200;2022-12-18T16:20:43;3.60;45.30
418;DHT22;49;48.530;9.200;2022-12-18T16:23:17;3.80;51.70
418;DHT22;49;48.530;9.200;2022-12-18T16:25:59;3.00;33.10
418;DHT22;49;48.530;9.200;2022-12-18T16:28:28;2.80;34.90
418;DHT22;49;48.530;9.200;2022-12-18T16:31:09;2.80;37.10
418;DHT22;49;48.530;9.200;2022-12-18T16:33:43;2.90;59.40
418;DHT22;49;48.530;9.200;2022-12-18T16:36:12;2.80;32.90
418;DHT22;49;48.530;9.200;2022-12-18T16:38:47;3.10;47.50
418;DHT22;49;48.530;9.200;2022-12-18T16:41:24;2.80;36.60
418;DHT22;49;48.530;9.200;2022-12-18T16:44:02;3.00;36.00
418;DHT22;49;48.530;9.200;2022-12-18T16:46:55;3.00;34.30
418;DHT22;49;48.530;9.200;2022-12-18T16:49:37;3.20;48.10
418;DHT22;49;48.530;9.200;2022-12-18T16:52:09;3.00;33.80
418;DHT22;49;48.530;9.200;2022-12-18T16:54:50;2.70;38.40
418;DHT22;49;48.530;9.200;2022-12-18T16:57:35;2.50;37.50
418;DHT22;49;48.530;9.200;2022-12-18T17:00:07;2.10;37.20
418;DHT22;49;48.530;9.200;2022-12-18T17:02:47;2.10;50.00
418;DHT22;49;48.530;9.200;2022-12-18T17:05:19;2.10;39.60
418;DHT22;49;48.530;9.200;2022-12-18T17:07:52;1.60;39.40
418;DHT22;49;48.530;9.200;2022-12-18T17:10:21;1.30;43.10
418;DHT22;49;48.530;9.200;2022-12-18T17:12:56;1.20;43.10
418;DHT22;49;48.530;9.200;2022-12-18T17:15:34;1.00;43.40
418;DHT22;49;48.530;9.200;2022-12-18T17:18:06;1.00;43.80
418;DHT22;49;48.530;9.200;2022-12-18T17:20:47;1.00;44.20
418;DHT22;49;48.530;9.200;2022-12-18T17:23:22;1.10;45.30
418;DHT22;49;48.530;9.200;2022-12-18T17:25:59;1.20;44.50
418;DHT22;49;48.530;9.200;2022-12-18T17:28:45;0.90;43.40
418;DHT22;49;48.530;9.200;2022-12-18T17:31:16;1.10;45.00
418;DHT22;49;48.530;9.200;2022-12-18T17:33:45;1.50;45.50
418;DHT22;49;48.530;9.200;2022-12-18T17:36:16;1.80;43.20
418;DHT22;49;48.530;9.200;2022-12-18T17:38:54;2.40;53.30
418;DHT22;49;48.530;9.200;2022-12-18T17:41:26;2.80;43.30
418;DHT22;49;48.530;9.200;2022-12-18T17:44:07;2.60;39.00
418;DHT22;49;48.530;9.200;2022-12-18T17:46:37;2.60;39.30
418;DHT22;49;48.530;9.200;2022-12-18T17:49:11;2.40;37.30
418;DHT22;49;48.530;9.200;2022-12-18T17:51:46;2.30;39.50
418;DHT22;49;48.530;9.200;2022-12-18T17:54:13;2.50;39.50
418;DHT22;49;48.530;9.200;2022-12-18T17:56:50;3.00;46.10
418;DHT22;49;48.530;9.200;2022-12-18T17:59:26;2.90;42.40
418;DHT22;49;48.530;9.200;2022-12-18T18:01:54;2.70;36.50
418;DHT22;49;48.530;9.200;2022-12-18T18:04:31;3.30;46.50
418;DHT22;49;48.530;9.200;2022-12-18T18:06:58;3.70;40.70
418;DHT22;49;48.530;9.200;2022-12-18T18:09:35;3.90;41.00
418;DHT22;49;48.530;9.200;2022-12-18T18:12:15;4.00;40.80
418;DHT22;49;48.530;9.200;2022-12-18T18:15:14;4.00;35.40
418;DHT22;49;48.530;9.200;2022-12-18T18:17:43;4.10;35.80
418;DHT22;49;48.530;9.200;2022-12-18T18:20:13;4.60;42.30
418;DHT22;49;48.530;9.200;2022-12-18T18:22:51;4.50;43.40
418;DHT22;49;48.530;9.200;2022-12-18T18:25:25;4.70;31.90
418;DHT22;49;48.530;9.200;2022-12-18T18:28:06;5.50;40.60
418;DHT22;49;48.530;9.200;2022-12-18T18:30:44;5.20;31.00
418;DHT22;49;48.530;9.200;2022-12-18T18:33:18;4.40;27.70
418;DHT22;49;48.530;9.200;2022-12-18T18:35:51;4.60;41.50
418;DHT22;49;48.530;9.200;2022-12-18T18:38:21;4.80;35.10
418;DHT22;49;48.530;9.200;2022-12-18T18:41:02;5.10;28.10
418;DHT22;49;48.530;9.200;2022-12-18T18:43:33;4.70;35.00
418;DHT22;49;48.530;9.200;2022-12-18T18:46:09;5.30;32.10
418;DHT22;49;48.530;9.200;2022-12-18T18:48:45;5.10;30.70
418;DHT22;49;48.530;9.200;2022-12-18T18:51:16;4.90;32.00
418;DHT22;49;48.530;9.200;2022-12-18T18:53:46;4.80;29.80
418;DHT22;49;48.530;9.200;2022-12-18T18:56:23;4.70;34.00